sensor_id;sensor_type;location;lat;lon;timestamp;P1;durP1;ratioP1;P2;durP2;ratioP2
25525;SDS011;13424;48.424;11.258;2024-02-28T00:01:52;48.90;;;26.90;;
25525;SDS011;13424;48.424;11.258;2024-02-28T00:04:19;44.92;;;27.33;;
25525;SDS011;13424;48.424;11.258;2024-02-28T00:06:45;41.60;;;26.00;;
25525;SDS011;13424;48.424;11.258;2024-02-28T00:09:14;49.78;;;26.92;;
25525;SDS011;13424;48.424;11.258;2024-02-28T00:11:43;49.95;;;27.45;;
25525;SDS011;13424;48.424;11.258;2024-02-28T00:14:10;48.33;;;27.90;;
25525;SDS011;13424;48.424;11.258;2024-02-28T00:16:40;48.40;;;27.05;;
25525;SDS011;13424;48.424;11.258;2024-02-28T00:19:07;45.95;;;27.33;;
25525;SDS011;13424;48.424;11.258;2024-02-28T00:21:33;47.63;;;28.60;;
25525;SDS011;13424;48.424;11.258;2024-02-28T00:23:59;46.78;;;27.17;;
25525;SDS011;13424;48.424;11.258;2024-02-28T00:30:07;43.72;;;25.33;;
25525;SDS011;13424;48.424;11.258;2024-02-28T00:32:34;53.17;;;29.85;;
25525;SDS011;13424;48.424;11.258;2024-02-28T00:35:00;49.83;;;27.67;;
25525;SDS011;13424;48.424;11.258;2024-02-28T00:37:26;47.72;;;28.65;;
25525;SDS011;13424;48.424;11.258;2024-02-28T00:39:52;45.95;;;27.80;;
25525;SDS011;13424;48.424;11.258;2024-02-28T00:42:18;49.60;;;27.10;;
25525;SDS011;13424;48.424;11.258;2024-02-28T00:44:44;51.72;;;28.33;;
25525;SDS011;13424;48.424;11.258;2024-02-28T00:47:10;47.85;;;27.20;;
25525;SDS011;13424;48.424;11.258;2024-02-28T00:49:37;47.20;;;27.60;;
25525;SDS011;13424;48.424;11.258;2024-02-28T00:52:03;51.58;;;27.10;;
25525;SDS011;13424;48.424;11.258;2024-02-28T00:54:29;44.83;;;26.75;;
25525;SDS011;13424;48.424;11.258;2024-02-28T00:56:55;51.80;;;28.27;;
25525;SDS011;13424;48.424;11.258;2024-02-28T00:59:21;52.53;;;28.90;;
25525;SDS011;13424;48.424;11.258;2024-02-28T01:01:48;50.55;;;26.85;;
25525;SDS011;13424;48.424;11.258;2024-02-28T01:04:14;47.80;;;27.75;;
25525;SDS011;13424;48.424;11.258;2024-02-28T01:06:41;51.33;;;28.45;;
25525;SDS011;13424;48.424;11.258;2024-02-28T01:09:07;49.25;;;28.70;;
25525;SDS011;13424;48.424;11.258;2024-02-28T01:11:33;49.15;;;26.13;;
25525;SDS011;13424;48.424;11.258;2024-02-28T01:13:59;50.35;;;30.00;;
25525;SDS011;13424;48.424;11.258;2024-02-28T01:16:25;47.35;;;26.88;;
25525;SDS011;13424;48.424;11.258;2024-02-28T01:22:16;49.72;;;27.73;;
25525;SDS011;13424;48.424;11.258;2024-02-28T01:24:42;46.42;;;27.15;;
25525;SDS011;13424;48.424;11.258;2024-02-28T01:27:08;50.58;;;28.73;;
25525;SDS011;13424;48.424;11.258;2024-02-28T01:29:34;44.97;;;28.35;;
25525;SDS011;13424;48.424;11.258;2024-02-28T01:35:35;49.28;;;28.75;;
25525;SDS011;13424;48.424;11.258;2024-02-28T01:38:01;52.00;;;29.42;;
25525;SDS011;13424;48.424;11.258;2024-02-28T01:44:18;48.28;;;29.67;;
25525;SDS011;13424;48.424;11.258;2024-02-28T01:46:44;52.60;;;28.90;;
25525;SDS011;13424;48.424;11.258;2024-02-28T01:49:10;49.83;;;27.95;;
25525;SDS011;13424;48.424;11.258;2024-02-28T01:51:36;55.65;;;29.40;;
25525;SDS011;13424;48.424;11.258;2024-02-28T01:54:02;45.80;;;28.33;;
25525;SDS011;13424;48.424;11.258;2024-02-28T01:56:28;52.70;;;29.38;;
25525;SDS011;13424;48.424;11.258;2024-02-28T01:58:55;48.65;;;28.83;;
25525;SDS011;13424;48.424;11.258;2024-02-28T02:01:22;52.35;;;29.00;;
25525;SDS011;13424;48.424;11.258;2024-02-28T02:03:51;50.40;;;28.20;;
25525;SDS011;13424;48.424;11.258;2024-02-28T02:06:17;53.42;;;28.98;;
25525;SDS011;13424;48.424;11.258;2024-02-28T02:08:43;53.03;;;28.50;;
25525;SDS011;13424;48.424;11.258;2024-02-28T02:11:11;52.47;;;29.75;;
25525;SDS011;13424;48.424;11.258;2024-02-28T02:13:52;53.53;;;30.70;;
25525;SDS011;13424;48.424;11.258;2024-02-28T02:16:19;52.80;;;28.67;;
25525;SDS011;13424;48.424;11.258;2024-02-28T02:18:48;58.33;;;30.85;;
25525;SDS011;13424;48.424;11.258;2024-02-28T02:21:16;48.63;;;28.90;;
25525;SDS011;13424;48.424;11.258;2024-02-28T02:23:45;59.28;;;30.77;;
25525;SDS011;13424;48.424;11.258;2024-02-28T02:26:11;54.05;;;29.63;;
25525;SDS011;13424;48.424;11.258;2024-02-28T02:28:37;56.58;;;29.17;;
25525;SDS011;13424;48.424;11.258;2024-02-28T02:31:03;55.33;;;30.02;;
25525;SDS011;13424;48.424;11.258;2024-02-28T02:33:29;55.90;;;29.67;;
25525;SDS011;13424;48.424;11.258;2024-02-28T02:35:55;53.20;;;29.70;;
25525;SDS011;13424;48.424;11.258;2024-02-28T02:38:21;51.90;;;30.98;;
25525;SDS011;13424;48.424;11.258;2024-02-28T02:40:51;54.42;;;30.90;;
25525;SDS011;13424;48.424;11.258;2024-02-28T02:43:17;56.13;;;31.60;;
25525;SDS011;13424;48.424;11.258;2024-02-28T02:45:44;56.40;;;31.55;;
25525;SDS011;13424;48.424;11.258;2024-02-28T02:48:10;59.05;;;32.33;;
25525;SDS011;13424;48.424;11.258;2024-02-28T02:50:36;58.95;;;30.98;;
25525;SDS011;13424;48.424;11.258;2024-02-28T02:56:25;62.45;;;31.95;;
25525;SDS011;13424;48.424;11.258;2024-02-28T02:58:51;54.88;;;31.77;;
25525;SDS011;13424;48.424;11.258;2024-02-28T03:01:17;55.03;;;30.63;;
25525;SDS011;13424;48.424;11.258;2024-02-28T03:07:10;55.30;;;30.17;;
25525;SDS011;13424;48.424;11.258;2024-02-28T03:09:36;59.05;;;33.33;;
25525;SDS011;13424;48.424;11.258;2024-02-28T03:12:02;56.97;;;31.70;;
25525;SDS011;13424;48.424;11.258;2024-02-28T03:14:29;63.15;;;32.85;;
25525;SDS011;13424;48.424;11.258;2024-02-28T03:16:54;66.78;;;32.42;;
25525;SDS011;13424;48.424;11.258;2024-02-28T03:19:21;61.33;;;33.25;;
25525;SDS011;13424;48.424;11.258;2024-02-28T03:21:48;64.65;;;32.72;;
25525;SDS011;13424;48.424;11.258;2024-02-28T03:24:14;61.17;;;32.33;;
25525;SDS011;13424;48.424;11.258;2024-02-28T03:26:40;60.97;;;32.75;;
25525;SDS011;13424;48.424;11.258;2024-02-28T03:29:07;59.15;;;31.88;;
25525;SDS011;13424;48.424;11.258;2024-02-28T03:31:33;60.15;;;32.75;;
25525;SDS011;13424;48.424;11.258;2024-02-28T03:33:59;61.25;;;31.33;;
25525;SDS011;13424;48.424;11.258;2024-02-28T03:36:25;62.70;;;32.75;;
25525;SDS011;13424;48.424;11.258;2024-02-28T03:38:53;55.58;;;31.60;;
25525;SDS011;13424;48.424;11.258;2024-02-28T03:41:19;56.42;;;31.23;;
25525;SDS011;13424;48.424;11.258;2024-02-28T03:43:45;58.58;;;32.30;;
25525;SDS011;13424;48.424;11.258;2024-02-28T03:46:11;56.38;;;32.70;;
25525;SDS011;13424;48.424;11.258;2024-02-28T03:48:37;60.60;;;31.52;;
25525;SDS011;13424;48.424;11.258;2024-02-28T03:51:03;62.45;;;33.53;;
25525;SDS011;13424;48.424;11.258;2024-02-28T03:53:29;68.82;;;33.75;;
25525;SDS011;13424;48.424;11.258;2024-02-28T03:55:55;56.38;;;31.42;;
25525;SDS011;13424;48.424;11.258;2024-02-28T03:58:21;67.85;;;33.22;;
25525;SDS011;13424;48.424;11.258;2024-02-28T04:00:47;62.22;;;33.20;;
25525;SDS011;13424;48.424;11.258;2024-02-28T04:03:14;55.83;;;30.83;;
25525;SDS011;13424;48.424;11.258;2024-02-28T04:05:40;61.70;;;32.50;;
25525;SDS011;13424;48.424;11.258;2024-02-28T04:08:07;63.00;;;35.22;;
25525;SDS011;13424;48.424;11.258;2024-02-28T04:10:33;59.70;;;32.90;;
25525;SDS011;13424;48.424;11.258;2024-02-28T04:12:59;63.88;;;35.63;;
25525;SDS011;13424;48.424;11.258;2024-02-28T04:15:25;63.25;;;35.17;;
25525;SDS011;13424;48.424;11.258;2024-02-28T04:17:51;65.10;;;35.13;;
25525;SDS011;13424;48.424;11.258;2024-02-28T04:20:17;67.95;;;34.60;;
25525;SDS011;13424;48.424;11.258;2024-02-28T04:22:43;67.63;;;35.60;;
25525;SDS011;13424;48.424;11.258;2024-02-28T04:25:09;62.05;;;32.25;;
25525;SDS011;13424;48.424;11.258;2024-02-28T04:27:36;66.70;;;35.30;;
25525;SDS011;13424;48.424;11.258;2024-02-28T04:30:03;59.72;;;33.45;;
25525;SDS011;13424;48.424;11.258;2024-02-28T04:32:30;67.50;;;35.45;;
25525;SDS011;13424;48.424;11.258;2024-02-28T04:34:56;63.72;;;35.22;;
25525;SDS011;13424;48.424;11.258;2024-02-28T04:37:22;60.38;;;32.10;;
25525;SDS011;13424;48.424;11.258;2024-02-28T04:39:48;60.60;;;33.03;;
25525;SDS011;13424;48.424;11.258;2024-02-28T04:42:15;55.72;;;31.35;;
25525;SDS011;13424;48.424;11.258;2024-02-28T04:44:42;62.60;;;33.65;;
25525;SDS011;13424;48.424;11.258;2024-02-28T04:47:08;63.80;;;35.13;;
25525;SDS011;13424;48.424;11.258;2024-02-28T04:49:37;60.17;;;32.53;;
25525;SDS011;13424;48.424;11.258;2024-02-28T04:52:04;63.88;;;32.10;;
25525;SDS011;13424;48.424;11.258;2024-02-28T04:54:32;63.53;;;33.88;;
25525;SDS011;13424;48.424;11.258;2024-02-28T04:56:58;58.53;;;32.70;;
25525;SDS011;13424;48.424;11.258;2024-02-28T04:59:25;60.78;;;33.72;;
25525;SDS011;13424;48.424;11.258;2024-02-28T05:01:51;58.65;;;32.97;;
25525;SDS011;13424;48.424;11.258;2024-02-28T05:04:17;62.47;;;33.42;;
25525;SDS011;13424;48.424;11.258;2024-02-28T05:10:28;60.22;;;30.70;;
25525;SDS011;13424;48.424;11.258;2024-02-28T05:12:54;65.28;;;33.85;;
25525;SDS011;13424;48.424;11.258;2024-02-28T05:15:20;62.15;;;33.03;;
25525;SDS011;13424;48.424;11.258;2024-02-28T05:17:46;69.32;;;34.35;;
25525;SDS011;13424;48.424;11.258;2024-02-28T05:20:15;62.45;;;33.42;;
25525;SDS011;13424;48.424;11.258;2024-02-28T05:22:41;60.58;;;33.45;;
25525;SDS011;13424;48.424;11.258;2024-02-28T05:25:07;65.95;;;34.50;;
25525;SDS011;13424;48.424;11.258;2024-02-28T05:27:33;70.05;;;36.25;;
25525;SDS011;13424;48.424;11.258;2024-02-28T05:30:01;63.85;;;33.55;;
25525;SDS011;13424;48.424;11.258;2024-02-28T05:32:27;71.00;;;36.05;;
25525;SDS011;13424;48.424;11.258;2024-02-28T05:34:53;60.90;;;33.58;;
25525;SDS011;13424;48.424;11.258;2024-02-28T05:37:19;66.10;;;35.67;;
25525;SDS011;13424;48.424;11.258;2024-02-28T05:39:45;66.32;;;34.13;;
25525;SDS011;13424;48.424;11.258;2024-02-28T05:42:11;66.63;;;34.75;;
25525;SDS011;13424;48.424;11.258;2024-02-28T05:44:37;65.75;;;33.72;;
25525;SDS011;13424;48.424;11.258;2024-02-28T05:47:03;66.95;;;34.13;;
25525;SDS011;13424;48.424;11.258;2024-02-28T05:49:29;62.20;;;33.58;;
25525;SDS011;13424;48.424;11.258;2024-02-28T05:51:55;68.57;;;35.88;;
25525;SDS011;13424;48.424;11.258;2024-02-28T05:54:21;61.67;;;34.67;;
25525;SDS011;13424;48.424;11.258;2024-02-28T05:56:47;63.80;;;33.65;;
25525;SDS011;13424;48.424;11.258;2024-02-28T05:59:13;65.20;;;34.10;;
25525;SDS011;13424;48.424;11.258;2024-02-28T06:01:39;62.40;;;34.38;;
25525;SDS011;13424;48.424;11.258;2024-02-28T06:04:05;67.72;;;35.35;;
25525;SDS011;13424;48.424;11.258;2024-02-28T06:06:40;63.95;;;33.17;;
25525;SDS011;13424;48.424;11.258;2024-02-28T06:09:06;67.65;;;35.67;;
25525;SDS011;13424;48.424;11.258;2024-02-28T06:11:32;71.05;;;33.88;;
25525;SDS011;13424;48.424;11.258;2024-02-28T06:13:59;66.85;;;35.67;;
25525;SDS011;13424;48.424;11.258;2024-02-28T06:16:25;64.97;;;34.63;;
25525;SDS011;13424;48.424;11.258;2024-02-28T06:18:50;71.95;;;36.08;;
25525;SDS011;13424;48.424;11.258;2024-02-28T06:21:16;66.80;;;34.95;;
25525;SDS011;13424;48.424;11.258;2024-02-28T06:23:42;71.82;;;38.90;;
25525;SDS011;13424;48.424;11.258;2024-02-28T06:26:08;71.43;;;36.88;;
25525;SDS011;13424;48.424;11.258;2024-02-28T06:28:41;72.63;;;37.35;;
25525;SDS011;13424;48.424;11.258;2024-02-28T06:31:17;75.68;;;37.65;;
25525;SDS011;13424;48.424;11.258;2024-02-28T06:33:44;71.03;;;34.00;;
25525;SDS011;13424;48.424;11.258;2024-02-28T06:36:11;70.80;;;37.95;;
25525;SDS011;13424;48.424;11.258;2024-02-28T06:38:37;75.85;;;37.22;;
25525;SDS011;13424;48.424;11.258;2024-02-28T06:41:06;74.90;;;37.42;;
25525;SDS011;13424;48.424;11.258;2024-02-28T06:43:33;73.57;;;37.72;;
25525;SDS011;13424;48.424;11.258;2024-02-28T06:46:01;74.15;;;37.45;;
25525;SDS011;13424;48.424;11.258;2024-02-28T06:48:28;77.88;;;37.65;;
25525;SDS011;13424;48.424;11.258;2024-02-28T06:50:54;73.35;;;37.40;;
25525;SDS011;13424;48.424;11.258;2024-02-28T06:53:20;86.75;;;38.63;;
25525;SDS011;13424;48.424;11.258;2024-02-28T06:55:47;80.15;;;38.45;;
25525;SDS011;13424;48.424;11.258;2024-02-28T06:58:14;87.75;;;39.97;;
25525;SDS011;13424;48.424;11.258;2024-02-28T07:00:41;86.10;;;39.22;;
25525;SDS011;13424;48.424;11.258;2024-02-28T07:03:07;79.25;;;37.70;;
25525;SDS011;13424;48.424;11.258;2024-02-28T07:05:33;78.95;;;38.97;;
25525;SDS011;13424;48.424;11.258;2024-02-28T07:07:59;98.35;;;48.20;;
25525;SDS011;13424;48.424;11.258;2024-02-28T07:10:26;86.13;;;39.60;;
25525;SDS011;13424;48.424;11.258;2024-02-28T07:12:52;84.25;;;42.40;;
25525;SDS011;13424;48.424;11.258;2024-02-28T07:15:18;84.43;;;41.72;;
25525;SDS011;13424;48.424;11.258;2024-02-28T07:17:47;84.53;;;41.08;;
25525;SDS011;13424;48.424;11.258;2024-02-28T07:20:13;109.05;;;56.42;;
25525;SDS011;13424;48.424;11.258;2024-02-28T07:22:39;105.25;;;51.25;;
25525;SDS011;13424;48.424;11.258;2024-02-28T07:25:08;101.15;;;47.15;;
25525;SDS011;13424;48.424;11.258;2024-02-28T07:27:34;94.90;;;43.97;;
25525;SDS011;13424;48.424;11.258;2024-02-28T07:30:01;99.35;;;44.78;;
25525;SDS011;13424;48.424;11.258;2024-02-28T07:32:28;93.32;;;41.92;;
25525;SDS011;13424;48.424;11.258;2024-02-28T07:35:02;93.75;;;41.42;;
25525;SDS011;13424;48.424;11.258;2024-02-28T07:37:29;85.88;;;41.22;;
25525;SDS011;13424;48.424;11.258;2024-02-28T07:39:55;77.45;;;39.28;;
25525;SDS011;13424;48.424;11.258;2024-02-28T07:42:21;90.65;;;42.17;;
25525;SDS011;13424;48.424;11.258;2024-02-28T07:44:47;87.13;;;43.58;;
25525;SDS011;13424;48.424;11.258;2024-02-28T07:47:19;99.43;;;46.00;;
25525;SDS011;13424;48.424;11.258;2024-02-28T07:49:50;93.30;;;45.40;;
25525;SDS011;13424;48.424;11.258;2024-02-28T07:52:17;92.30;;;43.75;;
25525;SDS011;13424;48.424;11.258;2024-02-28T07:54:43;97.03;;;45.17;;
25525;SDS011;13424;48.424;11.258;2024-02-28T07:57:09;84.32;;;40.20;;
25525;SDS011;13424;48.424;11.258;2024-02-28T07:59:40;88.90;;;42.47;;
25525;SDS011;13424;48.424;11.258;2024-02-28T08:04:33;94.50;;;40.95;;
25525;SDS011;13424;48.424;11.258;2024-02-28T08:06:59;88.65;;;41.08;;
25525;SDS011;13424;48.424;11.258;2024-02-28T08:09:25;92.60;;;44.50;;
25525;SDS011;13424;48.424;11.258;2024-02-28T08:11:51;88.93;;;41.28;;
25525;SDS011;13424;48.424;11.258;2024-02-28T08:14:17;95.07;;;43.85;;
25525;SDS011;13424;48.424;11.258;2024-02-28T08:16:43;94.50;;;45.17;;
25525;SDS011;13424;48.424;11.258;2024-02-28T08:19:09;88.45;;;43.60;;
25525;SDS011;13424;48.424;11.258;2024-02-28T08:21:35;94.85;;;47.55;;
25525;SDS011;13424;48.424;11.258;2024-02-28T08:24:01;91.55;;;44.35;;
25525;SDS011;13424;48.424;11.258;2024-02-28T08:26:31;87.75;;;42.97;;
25525;SDS011;13424;48.424;11.258;2024-02-28T08:28:57;96.53;;;41.35;;
25525;SDS011;13424;48.424;11.258;2024-02-28T08:31:23;85.95;;;42.20;;
25525;SDS011;13424;48.424;11.258;2024-02-28T08:33:49;85.65;;;40.42;;
25525;SDS011;13424;48.424;11.258;2024-02-28T08:36:15;87.70;;;43.42;;
25525;SDS011;13424;48.424;11.258;2024-02-28T08:38:41;87.88;;;40.70;;
25525;SDS011;13424;48.424;11.258;2024-02-28T08:41:07;86.88;;;41.25;;
25525;SDS011;13424;48.424;11.258;2024-02-28T08:43:41;90.13;;;41.53;;
25525;SDS011;13424;48.424;11.258;2024-02-28T08:46:06;91.35;;;43.33;;
25525;SDS011;13424;48.424;11.258;2024-02-28T08:48:33;87.78;;;42.78;;
25525;SDS011;13424;48.424;11.258;2024-02-28T08:50:59;93.43;;;43.83;;
25525;SDS011;13424;48.424;11.258;2024-02-28T08:53:28;101.90;;;43.00;;
25525;SDS011;13424;48.424;11.258;2024-02-28T08:55:54;97.07;;;47.90;;
25525;SDS011;13424;48.424;11.258;2024-02-28T08:58:20;105.47;;;45.85;;
25525;SDS011;13424;48.424;11.258;2024-02-28T09:00:46;102.38;;;51.20;;
25525;SDS011;13424;48.424;11.258;2024-02-28T09:03:12;98.55;;;45.47;;
25525;SDS011;13424;48.424;11.258;2024-02-28T09:05:38;95.93;;;45.83;;
25525;SDS011;13424;48.424;11.258;2024-02-28T09:08:04;75.05;;;37.92;;
25525;SDS011;13424;48.424;11.258;2024-02-28T09:10:31;90.15;;;42.72;;
25525;SDS011;13424;48.424;11.258;2024-02-28T09:13:00;88.63;;;43.10;;
25525;SDS011;13424;48.424;11.258;2024-02-28T09:15:26;84.47;;;39.17;;
25525;SDS011;13424;48.424;11.258;2024-02-28T09:17:52;76.75;;;39.15;;
25525;SDS011;13424;48.424;11.258;2024-02-28T09:20:18;77.35;;;41.47;;
25525;SDS011;13424;48.424;11.258;2024-02-28T09:26:09;83.32;;;41.10;;
25525;SDS011;13424;48.424;11.258;2024-02-28T09:28:35;81.15;;;39.97;;
25525;SDS011;13424;48.424;11.258;2024-02-28T09:31:01;82.55;;;41.03;;
25525;SDS011;13424;48.424;11.258;2024-02-28T09:33:29;85.50;;;43.53;;
25525;SDS011;13424;48.424;11.258;2024-02-28T09:35:55;90.88;;;41.53;;
25525;SDS011;13424;48.424;11.258;2024-02-28T09:38:21;82.28;;;40.83;;
25525;SDS011;13424;48.424;11.258;2024-02-28T09:40:47;88.22;;;40.58;;
25525;SDS011;13424;48.424;11.258;2024-02-28T09:43:40;92.57;;;42.75;;
25525;SDS011;13424;48.424;11.258;2024-02-28T09:46:07;90.30;;;42.20;;
25525;SDS011;13424;48.424;11.258;2024-02-28T09:48:41;86.93;;;40.90;;
25525;SDS011;13424;48.424;11.258;2024-02-28T09:51:08;88.03;;;41.00;;
25525;SDS011;13424;48.424;11.258;2024-02-28T09:53:36;88.90;;;41.75;;
25525;SDS011;13424;48.424;11.258;2024-02-28T09:56:02;88.40;;;44.38;;
25525;SDS011;13424;48.424;11.258;2024-02-28T09:58:29;96.43;;;41.92;;
25525;SDS011;13424;48.424;11.258;2024-02-28T10:00:57;100.47;;;46.45;;
25525;SDS011;13424;48.424;11.258;2024-02-28T10:03:28;90.13;;;43.58;;
25525;SDS011;13424;48.424;11.258;2024-02-28T10:05:56;96.25;;;44.85;;
25525;SDS011;13424;48.424;11.258;2024-02-28T10:08:22;98.50;;;44.28;;
25525;SDS011;13424;48.424;11.258;2024-02-28T10:10:48;96.57;;;42.88;;
25525;SDS011;13424;48.424;11.258;2024-02-28T10:13:19;91.95;;;42.00;;
25525;SDS011;13424;48.424;11.258;2024-02-28T10:15:45;101.75;;;44.55;;
25525;SDS011;13424;48.424;11.258;2024-02-28T10:18:14;100.65;;;44.85;;
25525;SDS011;13424;48.424;11.258;2024-02-28T10:20:41;83.43;;;41.30;;
25525;SDS011;13424;48.424;11.258;2024-02-28T10:23:07;97.15;;;42.40;;
25525;SDS011;13424;48.424;11.258;2024-02-28T10:25:41;93.15;;;43.08;;
25525;SDS011;13424;48.424;11.258;2024-02-28T10:28:13;92.03;;;42.67;;
25525;SDS011;13424;48.424;11.258;2024-02-28T10:30:40;93.95;;;41.78;;
25525;SDS011;13424;48.424;11.258;2024-02-28T10:33:14;86.72;;;39.33;;
25525;SDS011;13424;48.424;11.258;2024-02-28T10:35:41;84.97;;;42.28;;
25525;SDS011;13424;48.424;11.258;2024-02-28T10:38:12;93.32;;;43.30;;
25525;SDS011;13424;48.424;11.258;2024-02-28T10:40:40;90.93;;;41.78;;
25525;SDS011;13424;48.424;11.258;2024-02-28T10:43:08;93.88;;;43.17;;
25525;SDS011;13424;48.424;11.258;2024-02-28T10:45:36;90.65;;;41.90;;
25525;SDS011;13424;48.424;11.258;2024-02-28T10:48:04;83.40;;;40.17;;
25525;SDS011;13424;48.424;11.258;2024-02-28T10:50:31;93.05;;;41.35;;
25525;SDS011;13424;48.424;11.258;2024-02-28T10:53:00;92.95;;;42.97;;
25525;SDS011;13424;48.424;11.258;2024-02-28T10:55:32;82.45;;;39.75;;
25525;SDS011;13424;48.424;11.258;2024-02-28T10:58:08;86.68;;;39.35;;
25525;SDS011;13424;48.424;11.258;2024-02-28T11:00:36;89.05;;;41.00;;
25525;SDS011;13424;48.424;11.258;2024-02-28T11:03:07;76.95;;;39.53;;
25525;SDS011;13424;48.424;11.258;2024-02-28T11:05:38;78.68;;;37.65;;
25525;SDS011;13424;48.424;11.258;2024-02-28T11:10:56;85.45;;;39.17;;
25525;SDS011;13424;48.424;11.258;2024-02-28T11:13:25;87.65;;;40.95;;
25525;SDS011;13424;48.424;11.258;2024-02-28T11:15:53;86.32;;;41.17;;
25525;SDS011;13424;48.424;11.258;2024-02-28T11:18:22;85.57;;;41.13;;
25525;SDS011;13424;48.424;11.258;2024-02-28T11:20:48;80.82;;;39.72;;
25525;SDS011;13424;48.424;11.258;2024-02-28T11:23:17;85.00;;;39.42;;
25525;SDS011;13424;48.424;11.258;2024-02-28T11:25:43;89.20;;;42.00;;
25525;SDS011;13424;48.424;11.258;2024-02-28T11:28:09;88.95;;;40.55;;
25525;SDS011;13424;48.424;11.258;2024-02-28T11:30:35;90.05;;;41.30;;
25525;SDS011;13424;48.424;11.258;2024-02-28T11:33:01;88.55;;;41.22;;
25525;SDS011;13424;48.424;11.258;2024-02-28T11:39:20;86.50;;;40.55;;
25525;SDS011;13424;48.424;11.258;2024-02-28T11:41:50;86.18;;;39.88;;
25525;SDS011;13424;48.424;11.258;2024-02-28T11:44:16;89.57;;;41.08;;
25525;SDS011;13424;48.424;11.258;2024-02-28T11:46:48;86.30;;;39.47;;
25525;SDS011;13424;48.424;11.258;2024-02-28T11:51:44;82.45;;;37.92;;
25525;SDS011;13424;48.424;11.258;2024-02-28T11:54:11;86.82;;;40.10;;
25525;SDS011;13424;48.424;11.258;2024-02-28T11:56:37;96.78;;;41.90;;
25525;SDS011;13424;48.424;11.258;2024-02-28T11:59:16;91.03;;;40.88;;
25525;SDS011;13424;48.424;11.258;2024-02-28T12:01:43;84.45;;;39.90;;
25525;SDS011;13424;48.424;11.258;2024-02-28T12:04:09;97.30;;;42.05;;
25525;SDS011;13424;48.424;11.258;2024-02-28T12:06:37;88.38;;;41.50;;
25525;SDS011;13424;48.424;11.258;2024-02-28T12:09:06;90.63;;;41.15;;
25525;SDS011;13424;48.424;11.258;2024-02-28T12:11:36;101.57;;;48.13;;
25525;SDS011;13424;48.424;11.258;2024-02-28T12:14:09;96.65;;;46.63;;
25525;SDS011;13424;48.424;11.258;2024-02-28T12:16:40;104.47;;;48.95;;
25525;SDS011;13424;48.424;11.258;2024-02-28T12:19:10;96.75;;;46.70;;
25525;SDS011;13424;48.424;11.258;2024-02-28T12:21:37;93.65;;;44.83;;
25525;SDS011;13424;48.424;11.258;2024-02-28T12:24:08;88.25;;;45.00;;
25525;SDS011;13424;48.424;11.258;2024-02-28T12:26:35;109.90;;;54.10;;
25525;SDS011;13424;48.424;11.258;2024-02-28T12:29:02;90.25;;;45.67;;
25525;SDS011;13424;48.424;11.258;2024-02-28T12:31:28;87.68;;;41.10;;
25525;SDS011;13424;48.424;11.258;2024-02-28T12:33:54;82.55;;;39.42;;
25525;SDS011;13424;48.424;11.258;2024-02-28T12:36:20;85.95;;;39.30;;
25525;SDS011;13424;48.424;11.258;2024-02-28T12:38:47;93.90;;;42.28;;
25525;SDS011;13424;48.424;11.258;2024-02-28T12:41:13;91.80;;;42.55;;
25525;SDS011;13424;48.424;11.258;2024-02-28T12:43:43;96.05;;;43.08;;
25525;SDS011;13424;48.424;11.258;2024-02-28T12:46:09;94.13;;;41.85;;
25525;SDS011;13424;48.424;11.258;2024-02-28T12:48:38;91.93;;;43.08;;
25525;SDS011;13424;48.424;11.258;2024-02-28T12:51:13;86.03;;;40.72;;
25525;SDS011;13424;48.424;11.258;2024-02-28T12:54:07;84.72;;;40.42;;
25525;SDS011;13424;48.424;11.258;2024-02-28T12:56:38;92.20;;;41.88;;
25525;SDS011;13424;48.424;11.258;2024-02-28T12:59:05;78.47;;;43.05;;
25525;SDS011;13424;48.424;11.258;2024-02-28T13:01:34;82.00;;;40.85;;
25525;SDS011;13424;48.424;11.258;2024-02-28T13:04:01;86.00;;;40.30;;
25525;SDS011;13424;48.424;11.258;2024-02-28T13:06:27;84.20;;;40.95;;
25525;SDS011;13424;48.424;11.258;2024-02-28T13:08:55;80.30;;;39.38;;
25525;SDS011;13424;48.424;11.258;2024-02-28T13:11:23;88.78;;;41.20;;
25525;SDS011;13424;48.424;11.258;2024-02-28T13:13:50;73.22;;;38.25;;
25525;SDS011;13424;48.424;11.258;2024-02-28T13:16:18;81.28;;;40.67;;
25525;SDS011;13424;48.424;11.258;2024-02-28T13:18:45;74.55;;;37.60;;
25525;SDS011;13424;48.424;11.258;2024-02-28T13:21:14;83.38;;;39.10;;
25525;SDS011;13424;48.424;11.258;2024-02-28T13:23:40;80.72;;;37.13;;
25525;SDS011;13424;48.424;11.258;2024-02-28T13:26:06;82.40;;;39.22;;
25525;SDS011;13424;48.424;11.258;2024-02-28T13:28:33;75.78;;;36.55;;
25525;SDS011;13424;48.424;11.258;2024-02-28T13:31:02;84.28;;;38.45;;
25525;SDS011;13424;48.424;11.258;2024-02-28T13:33:31;75.15;;;35.92;;
25525;SDS011;13424;48.424;11.258;2024-02-28T13:35:57;78.15;;;38.35;;
25525;SDS011;13424;48.424;11.258;2024-02-28T13:38:23;73.07;;;37.22;;
25525;SDS011;13424;48.424;11.258;2024-02-28T13:40:49;82.03;;;38.90;;
25525;SDS011;13424;48.424;11.258;2024-02-28T13:43:16;71.60;;;36.47;;
25525;SDS011;13424;48.424;11.258;2024-02-28T13:45:46;74.30;;;38.13;;
25525;SDS011;13424;48.424;11.258;2024-02-28T13:52:16;73.63;;;38.30;;
25525;SDS011;13424;48.424;11.258;2024-02-28T13:54:42;76.25;;;36.35;;
25525;SDS011;13424;48.424;11.258;2024-02-28T13:57:08;87.35;;;40.72;;
25525;SDS011;13424;48.424;11.258;2024-02-28T13:59:34;82.65;;;38.78;;
25525;SDS011;13424;48.424;11.258;2024-02-28T14:02:00;78.88;;;37.40;;
25525;SDS011;13424;48.424;11.258;2024-02-28T14:04:27;74.93;;;37.22;;
25525;SDS011;13424;48.424;11.258;2024-02-28T14:06:53;71.00;;;35.53;;
25525;SDS011;13424;48.424;11.258;2024-02-28T14:09:19;67.85;;;35.35;;
25525;SDS011;13424;48.424;11.258;2024-02-28T14:11:45;80.47;;;38.45;;
25525;SDS011;13424;48.424;11.258;2024-02-28T14:14:11;76.35;;;35.80;;
25525;SDS011;13424;48.424;11.258;2024-02-28T14:16:37;75.57;;;36.70;;
25525;SDS011;13424;48.424;11.258;2024-02-28T14:19:03;71.88;;;34.75;;
25525;SDS011;13424;48.424;11.258;2024-02-28T14:26:01;77.63;;;34.83;;
25525;SDS011;13424;48.424;11.258;2024-02-28T14:28:27;71.97;;;35.97;;
25525;SDS011;13424;48.424;11.258;2024-02-28T14:30:53;68.70;;;34.17;;
25525;SDS011;13424;48.424;11.258;2024-02-28T14:33:20;71.00;;;34.88;;
25525;SDS011;13424;48.424;11.258;2024-02-28T14:35:46;68.97;;;34.53;;
25525;SDS011;13424;48.424;11.258;2024-02-28T14:38:12;71.22;;;33.45;;
25525;SDS011;13424;48.424;11.258;2024-02-28T14:40:38;73.40;;;35.72;;
25525;SDS011;13424;48.424;11.258;2024-02-28T14:43:11;73.35;;;35.40;;
25525;SDS011;13424;48.424;11.258;2024-02-28T14:45:37;68.07;;;33.03;;
25525;SDS011;13424;48.424;11.258;2024-02-28T14:48:03;72.25;;;34.78;;
25525;SDS011;13424;48.424;11.258;2024-02-28T14:50:40;68.43;;;34.42;;
25525;SDS011;13424;48.424;11.258;2024-02-28T14:53:07;67.18;;;34.05;;
25525;SDS011;13424;48.424;11.258;2024-02-28T14:55:33;67.35;;;33.55;;
25525;SDS011;13424;48.424;11.258;2024-02-28T14:57:59;69.05;;;34.45;;